Time,TemperatureF,DewpointF,PressureIn,WindDirection,WindDirectionDegrees,WindSpeedMPH,WindSpeedGustMPH,Humidity,HourlyPrecipIn,Conditions,Clouds,dailyrainin,SoftwareType,DateUTC
2013-04-26 00:00:00,51.9,51.9,30.04,South,178,2.0,2.0,100,0.00,,,0.00,Wunderground v.1.12,2013-04-26 07:00:00,
2013-04-26 00:10:00,51.9,51.9,30.03,WNW,285,1.0,2.0,100,0.00,,,0.00,Wunderground v.1.12,2013-04-26 07:10:00,
2013-04-26 00:20:00,51.9,51.9,30.03,WNW,290,1.0,6.0,100,0.00,,,0.00,Wunderground v.1.12,2013-04-26 07:20:00,
2013-04-26 00:30:00,51.9,51.9,30.03,WSW,240,2.0,2.0,100,0.00,,,0.00,Wunderground v.1.12,2013-04-26 07:30:00,
2013-04-26 00:40:00,51.9,51.9,30.04,West,266,1.0,1.0,100,0.00,,,0.00,Wunderground v.1.12,2013-04-26 07:40:00,
2013-04-26 00:50:00,51.9,51.9,30.03,SSW,192,1.0,1.0,100,0.00,,,0.00,Wunderground v.1.12,2013-04-26 07:50:00,
2013-04-26 01:00:00,51.9,51.9,30.03,West,266,1.0,1.0,100,0.00,,,0.00,Wunderground v.1.12,2013-04-26 08:00:00,
2013-04-26 01:10:00,51.9,51.9,30.04,West,277,1.0,1.0,100,0.00,,,0.00,Wunderground v.1.12,2013-04-26 08:10:00,
2013-04-26 01:20:00,51.7,51.7,30.04,West,278,2.0,2.0,100,0.00,,,0.00,Wunderground v.1.12,2013-04-26 08:20:00,
2013-04-26 01:30:00,51.7,51.7,30.04,WSW,238,1.0,2.0,100,0.00,,,0.00,Wunderground v.1.12,2013-04-26 08:30:00,
2013-04-26 01:40:00,51.6,51.6,30.04,West,264,3.0,11.0,100,0.00,,,0.00,Wunderground v.1.12,2013-04-26 08:40:00,
2013-04-26 01:50:00,51.4,51.4,30.03,WNW,289,3.0,4.0,100,0.00,,,0.00,Wunderground v.1.12,2013-04-26 08:50:00,
2013-04-26 02:00:00,51.4,51.4,30.03,SSW,213,2.0,4.0,100,0.00,,,0.00,Wunderground v.1.12,2013-04-26 09:00:00,
2013-04-26 02:10:00,51.3,51.3,30.03,WNW,290,2.0,4.0,100,0.00,,,0.00,Wunderground v.1.12,2013-04-26 09:10:00,
2013-04-26 02:20:00,51.1,51.1,30.03,WSW,243,2.0,2.0,100,0.00,,,0.00,Wunderground v.1.12,2013-04-26 09:20:00,
2013-04-26 02:30:00,51.0,51.0,30.03,SW,214,2.0,2.0,100,0.00,,,0.00,Wunderground v.1.12,2013-04-26 09:30:00,
2013-04-26 02:40:00,50.8,50.8,30.03,WNW,302,2.0,5.0,100,0.00,,,0.00,Wunderground v.1.12,2013-04-26 09:40:00,
2013-04-26 02:50:00,50.8,50.8,30.03,West,274,1.0,2.0,100,0.00,,,0.00,Wunderground v.1.12,2013-04-26 09:50:00,
2013-04-26 03:00:00,50.8,50.8,30.03,West,266,2.0,2.0,100,0.00,,,0.00,Wunderground v.1.12,2013-04-26 10:00:00,
2013-04-26 03:10:00,50.7,50.7,30.03,WNW,284,2.0,2.0,100,0.00,,,0.00,Wunderground v.1.12,2013-04-26 10:10:00,
2013-04-26 03:20:00,50.7,50.7,30.03,WNW,300,2.0,2.0,100,0.00,,,0.00,Wunderground v.1.12,2013-04-26 10:20:00,
2013-04-26 03:30:00,50.5,50.5,30.03,West,281,2.0,3.0,100,0.00,,,0.00,Wunderground v.1.12,2013-04-26 10:30:00,
2013-04-26 03:40:00,50.4,50.4,30.04,SW,217,2.0,2.0,100,0.00,,,0.00,Wunderground v.1.12,2013-04-26 10:40:00,
2013-04-26 03:50:00,50.4,50.4,30.04,WNW,290,1.0,1.0,100,0.00,,,0.00,Wunderground v.1.12,2013-04-26 10:50:00,
2013-04-26 04:00:00,50.2,50.2,30.04,SW,219,2.0,2.0,100,0.00,,,0.00,Wunderground v.1.12,2013-04-26 11:00:00,
2013-04-26 04:10:00,50.1,50.1,30.04,WNW,294,1.0,1.0,100,0.00,,,0.00,Wunderground v.1.12,2013-04-26 11:10:00,
2013-04-26 04:20:00,50.1,50.1,30.04,WNW,300,2.0,3.0,100,0.00,,,0.00,Wunderground v.1.12,2013-04-26 11:20:00,
2013-04-26 04:30:00,49.9,49.9,30.04,WNW,292,2.0,3.0,100,0.00,,,0.00,Wunderground v.1.12,2013-04-26 11:30:00,
2013-04-26 04:40:00,49.9,49.9,30.05,WNW,294,2.0,2.0,100,0.00,,,0.00,Wunderground v.1.12,2013-04-26 11:40:00,
2013-04-26 04:50:00,49.9,49.9,30.05,WSW,244,1.0,1.0,100,0.00,,,0.00,Wunderground v.1.12,2013-04-26 11:50:00,
2013-04-26 05:00:00,49.9,49.9,30.05,NW,306,2.0,2.0,100,0.00,,,0.00,Wunderground v.1.12,2013-04-26 12:00:00,
2013-04-26 05:10:00,49.8,49.8,30.04,West,275,3.0,3.0,100,0.00,,,0.00,Wunderground v.1.12,2013-04-26 12:10:00,
2013-04-26 05:20:00,49.6,49.6,30.04,WNW,291,1.0,1.0,100,0.00,,,0.00,Wunderground v.1.12,2013-04-26 12:20:00,
2013-04-26 05:30:00,49.6,49.6,30.04,SW,215,2.0,2.0,100,0.00,,,0.00,Wunderground v.1.12,2013-04-26 12:30:00,
2013-04-26 05:40:00,49.4,49.4,30.05,WNW,290,2.0,2.0,100,0.00,,,0.00,Wunderground v.1.12,2013-04-26 12:40:00,
2013-04-26 05:50:00,49.4,49.4,30.05,WNW,302,1.0,4.0,100,0.00,,,0.00,Wunderground v.1.12,2013-04-26 12:50:00,
2013-04-26 06:00:00,49.2,49.2,30.05,WNW,290,2.0,2.0,100,0.00,,,0.00,Wunderground v.1.12,2013-04-26 13:00:00,
2013-04-26 06:10:00,49.1,49.1,30.06,West,273,2.0,2.0,100,0.00,,,0.00,Wunderground v.1.12,2013-04-26 13:10:00,
2013-04-26 06:20:00,49.2,49.2,30.07,WNW,289,1.0,1.0,100,0.00,,,0.00,Wunderground v.1.12,2013-04-26 13:20:00,
2013-04-26 06:30:00,49.2,49.2,30.07,West,275,2.0,2.0,100,0.00,,,0.00,Wunderground v.1.12,2013-04-26 13:30:00,
2013-04-26 06:40:00,49.2,49.2,30.07,WNW,296,1.0,3.0,100,0.00,,,0.00,Wunderground v.1.12,2013-04-26 13:40:00,
2013-04-26 06:50:00,49.2,49.2,30.07,WNW,288,2.0,4.0,100,0.00,,,0.00,Wunderground v.1.12,2013-04-26 13:50:00,
2013-04-26 07:00:00,49.2,49.2,30.07,WNW,289,1.0,1.0,100,0.00,,,0.00,Wunderground v.1.12,2013-04-26 14:00:00,
2013-04-26 07:10:00,49.4,49.4,30.08,SW,234,0.0,0.0,100,0.00,,,0.00,Wunderground v.1.12,2013-04-26 14:10:00,
2013-04-26 07:20:00,49.4,49.4,30.09,WSW,240,1.0,1.0,100,0.00,,,0.00,Wunderground v.1.12,2013-04-26 14:20:00,
2013-04-26 07:30:00,49.4,49.4,30.09,WSW,239,1.0,1.0,100,0.00,,,0.00,Wunderground v.1.12,2013-04-26 14:30:00,
2013-04-26 07:40:00,49.2,49.2,30.10,WNW,292,3.0,3.0,100,0.00,,,0.00,Wunderground v.1.12,2013-04-26 14:40:00,
2013-04-26 07:50:00,49.5,49.5,30.10,SW,233,2.0,3.0,100,0.00,,,0.00,Wunderground v.1.12,2013-04-26 14:50:00,
2013-04-26 08:00:00,49.6,49.6,30.10,West,274,1.0,3.0,100,0.00,,,0.00,Wunderground v.1.12,2013-04-26 15:00:00,
2013-04-26 08:10:00,49.6,49.6,30.11,WNW,287,3.0,5.0,100,0.00,,,0.00,Wunderground v.1.12,2013-04-26 15:10:00,
2013-04-26 08:20:00,49.5,49.5,30.11,WNW,284,3.0,3.0,100,0.00,,,0.00,Wunderground v.1.12,2013-04-26 15:20:00,
2013-04-26 08:30:00,49.9,49.9,30.11,SSW,213,1.0,1.0,100,0.00,,,0.00,Wunderground v.1.12,2013-04-26 15:30:00,
2013-04-26 08:40:00,50.1,50.1,30.11,WNW,286,2.0,2.0,100,0.00,,,0.00,Wunderground v.1.12,2013-04-26 15:40:00,
2013-04-26 08:50:00,50.1,50.1,30.11,WNW,297,2.0,2.0,100,0.00,,,0.00,Wunderground v.1.12,2013-04-26 15:50:00,
2013-04-26 09:00:00,50.5,50.5,30.11,SW,219,0.0,0.0,100,0.00,,,0.00,Wunderground v.1.12,2013-04-26 16:00:00,
2013-04-26 09:10:00,50.8,50.8,30.11,West,269,1.0,1.0,100,0.00,,,0.00,Wunderground v.1.12,2013-04-26 16:10:00,
2013-04-26 09:20:00,51.3,51.3,30.12,West,271,0.0,2.0,100,0.00,,,0.00,Wunderground v.1.12,2013-04-26 16:20:00,
2013-04-26 09:30:00,51.6,51.6,30.12,West,278,1.0,1.0,100,0.00,,,0.00,Wunderground v.1.12,2013-04-26 16:30:00,
2013-04-26 09:40:00,51.7,51.7,30.12,WNW,302,2.0,4.0,100,0.00,,,0.00,Wunderground v.1.12,2013-04-26 16:40:00,
2013-04-26 09:50:00,52.0,52.0,30.13,West,269,1.0,1.0,100,0.00,,,0.00,Wunderground v.1.12,2013-04-26 16:50:00,
2013-04-26 10:00:00,52.5,52.5,30.13,SW,225,1.0,1.0,100,0.00,,,0.00,Wunderground v.1.12,2013-04-26 17:00:00,
2013-04-26 10:10:00,53.1,53.1,30.13,SSW,194,1.0,1.0,100,0.00,,,0.00,Wunderground v.1.12,2013-04-26 17:10:00,
2013-04-26 10:20:00,53.6,53.6,30.13,WNW,290,2.0,2.0,100,0.00,,,0.00,Wunderground v.1.12,2013-04-26 17:20:00,
2013-04-26 10:30:00,53.5,53.5,30.13,WNW,291,3.0,3.0,100,0.00,,,0.00,Wunderground v.1.12,2013-04-26 17:30:00,
2013-04-26 10:40:00,53.6,53.6,30.14,West,268,1.0,1.0,100,0.00,,,0.00,Wunderground v.1.12,2013-04-26 17:40:00,
2013-04-26 10:50:00,54.4,54.4,30.14,NW,322,1.0,3.0,100,0.00,,,0.00,Wunderground v.1.12,2013-04-26 17:50:00,
2013-04-26 11:00:00,55.6,55.6,30.14,NNE,24,1.0,1.0,100,0.00,,,0.00,Wunderground v.1.12,2013-04-26 18:00:00,
2013-04-26 11:10:00,56.3,56.3,30.14,West,280,1.0,1.0,100,0.00,,,0.00,Wunderground v.1.12,2013-04-26 18:10:00,
2013-04-26 11:20:00,56.5,56.5,30.14,West,271,3.0,5.0,100,0.00,,,0.00,Wunderground v.1.12,2013-04-26 18:20:00,
2013-04-26 11:30:00,57.0,57.0,30.14,WNW,295,2.0,5.0,100,0.00,,,0.00,Wunderground v.1.12,2013-04-26 18:30:00,
2013-04-26 11:40:00,57.8,57.8,30.13,West,277,2.0,6.0,100,0.00,,,0.00,Wunderground v.1.12,2013-04-26 18:40:00,
2013-04-26 11:50:00,57.8,57.8,30.13,WNW,292,3.0,3.0,100,0.00,,,0.00,Wunderground v.1.12,2013-04-26 18:50:00,
2013-04-26 12:00:00,58.4,58.4,30.13,WNW,288,3.0,5.0,100,0.00,,,0.00,Wunderground v.1.12,2013-04-26 19:00:00,
2013-04-26 12:10:00,58.7,58.7,30.13,NNW,345,2.0,3.0,100,0.00,,,0.00,Wunderground v.1.12,2013-04-26 19:10:00,
2013-04-26 12:20:00,59.2,59.2,30.13,WNW,288,3.0,6.0,100,0.00,,,0.00,Wunderground v.1.12,2013-04-26 19:20:00,
2013-04-26 12:30:00,60.2,60.2,30.13,WNW,286,2.0,6.0,100,0.00,,,0.00,Wunderground v.1.12,2013-04-26 19:30:00,
2013-04-26 12:40:00,60.7,60.7,30.13,NW,309,4.0,4.0,100,0.00,,,0.00,Wunderground v.1.12,2013-04-26 19:40:00,
2013-04-26 12:50:00,61.0,61.0,30.13,WNW,295,4.0,6.0,100,0.00,,,0.00,Wunderground v.1.12,2013-04-26 19:50:00,
2013-04-26 13:00:00,60.9,60.9,30.13,WNW,298,4.0,4.0,100,0.00,,,0.00,Wunderground v.1.12,2013-04-26 20:00:00,
2013-04-26 13:10:00,61.0,61.0,30.12,WNW,296,4.0,6.0,100,0.00,,,0.00,Wunderground v.1.12,2013-04-26 20:10:00,
2013-04-26 13:20:00,61.5,61.5,30.12,WNW,290,3.0,6.0,100,0.00,,,0.00,Wunderground v.1.12,2013-04-26 20:20:00,
2013-04-26 13:30:00,61.6,61.6,30.12,WNW,291,5.0,6.0,100,0.00,,,0.00,Wunderground v.1.12,2013-04-26 20:30:00,
2013-04-26 13:40:00,61.5,61.5,30.12,WNW,286,5.0,5.0,100,0.00,,,0.00,Wunderground v.1.12,2013-04-26 20:40:00,
2013-04-26 13:50:00,61.6,61.6,30.11,WNW,286,5.0,8.0,100,0.00,,,0.00,Wunderground v.1.12,2013-04-26 20:50:00,
2013-04-26 14:00:00,62.6,62.6,30.11,WNW,303,3.0,7.0,100,0.00,,,0.00,Wunderground v.1.12,2013-04-26 21:00:00,
2013-04-26 14:10:00,63.2,63.2,30.11,WNW,286,4.0,7.0,100,0.00,,,0.00,Wunderground v.1.12,2013-04-26 21:10:00,
2013-04-26 14:20:00,63.2,63.2,30.11,WNW,294,5.0,7.0,100,0.00,,,0.00,Wunderground v.1.12,2013-04-26 21:20:00,
2013-04-26 14:30:00,63.5,63.5,30.11,WNW,302,4.0,4.0,100,0.00,,,0.00,Wunderground v.1.12,2013-04-26 21:30:00,
2013-04-26 14:40:00,63.2,63.2,30.11,NW,304,5.0,6.0,100,0.00,,,0.00,Wunderground v.1.12,2013-04-26 21:40:00,
2013-04-26 14:50:00,63.2,63.2,30.11,WNW,288,5.0,5.0,100,0.00,,,0.00,Wunderground v.1.12,2013-04-26 21:50:00,
2013-04-26 15:00:00,62.4,62.4,30.11,WNW,293,6.0,6.0,100,0.00,,,0.00,Wunderground v.1.12,2013-04-26 22:00:00,
2013-04-26 15:10:00,61.5,61.5,30.11,NW,309,7.0,7.0,100,0.00,,,0.00,Wunderground v.1.12,2013-04-26 22:10:00,
2013-04-26 15:20:00,61.0,61.0,30.11,West,265,6.0,6.0,100,0.00,,,0.00,Wunderground v.1.12,2013-04-26 22:20:00,
2013-04-26 15:30:00,61.6,61.6,30.11,West,263,6.0,6.0,100,0.00,,,0.00,Wunderground v.1.12,2013-04-26 22:30:00,
2013-04-26 15:40:00,61.8,61.8,30.11,WNW,286,7.0,9.0,100,0.00,,,0.00,Wunderground v.1.12,2013-04-26 22:40:00,
2013-04-26 15:50:00,61.2,61.2,30.11,WNW,297,7.0,7.0,100,0.00,,,0.00,Wunderground v.1.12,2013-04-26 22:50:00,
2013-04-26 16:00:00,59.9,59.9,30.11,West,279,7.0,10.0,100,0.00,,,0.00,Wunderground v.1.12,2013-04-26 23:00:00,
2013-04-26 16:10:00,58.7,58.7,30.11,WNW,303,8.0,8.0,100,0.00,,,0.00,Wunderground v.1.12,2013-04-26 23:10:00,
2013-04-26 16:20:00,58.3,58.3,30.10,WNW,294,7.0,10.0,100,0.00,,,0.00,Wunderground v.1.12,2013-04-26 23:20:00,
2013-04-26 16:30:00,58.1,58.1,30.10,West,281,7.0,13.0,100,0.00,,,0.00,Wunderground v.1.12,2013-04-26 23:30:00,
2013-04-26 16:40:00,58.1,58.1,30.10,West,279,7.0,7.0,100,0.00,,,0.00,Wunderground v.1.12,2013-04-26 23:40:00,
2013-04-26 16:50:00,57.6,57.6,30.10,WNW,284,7.0,10.0,100,0.00,,,0.00,Wunderground v.1.12,2013-04-26 23:50:00,
2013-04-26 16:55:00,56.9,56.9,30.10,WNW,292,7.0,14.0,100,0.00,,,-99.99,WeatherLink 5.8.2,2013-04-26 23:55:00,
2013-04-26 17:00:00,56.9,56.9,30.10,WNW,292,6.0,13.0,100,0.00,,,-99.99,WeatherLink 5.8.2,2013-04-27 00:00:00,
2013-04-26 17:10:00,56.7,56.7,30.10,WNW,300,5.0,6.0,100,0.00,,,0.00,Wunderground v.1.12,2013-04-27 00:10:00,
2013-04-26 17:20:00,56.3,56.3,30.10,West,273,6.0,7.0,100,0.00,,,0.00,Wunderground v.1.12,2013-04-27 00:20:00,
2013-04-26 17:30:00,56.3,56.3,30.10,WNW,300,6.0,6.0,100,0.00,,,0.00,Wunderground v.1.12,2013-04-27 00:30:00,
2013-04-26 17:40:00,55.4,55.4,30.10,WNW,296,6.0,8.0,100,0.00,,,0.00,Wunderground v.1.12,2013-04-27 00:40:00,
2013-04-26 17:50:00,54.4,54.4,30.10,WNW,303,8.0,8.0,100,0.00,,,0.00,Wunderground v.1.12,2013-04-27 00:50:00,
2013-04-26 18:00:00,54.2,54.2,30.10,WNW,295,7.0,7.0,100,0.00,,,0.00,Wunderground v.1.12,2013-04-27 01:00:00,
2013-04-26 18:10:00,53.8,53.8,30.10,WNW,290,6.0,6.0,100,0.00,,,0.00,Wunderground v.1.12,2013-04-27 01:10:00,
2013-04-26 18:20:00,53.3,53.3,30.10,WNW,289,4.0,6.0,100,0.00,,,0.00,Wunderground v.1.12,2013-04-27 01:20:00,
2013-04-26 18:30:00,52.8,52.8,30.10,WNW,292,5.0,5.0,100,0.00,,,0.00,Wunderground v.1.12,2013-04-27 01:30:00,
2013-04-26 18:40:00,52.2,52.2,30.10,WNW,290,5.0,5.0,100,0.00,,,0.00,Wunderground v.1.12,2013-04-27 01:40:00,
2013-04-26 18:50:00,51.7,51.7,30.11,WNW,301,5.0,5.0,100,0.00,,,0.00,Wunderground v.1.12,2013-04-27 01:50:00,
2013-04-26 19:00:00,51.6,51.6,30.11,West,277,3.0,6.0,100,0.00,,,0.00,Wunderground v.1.12,2013-04-27 02:00:00,
2013-04-26 19:10:00,51.3,51.3,30.11,West,277,5.0,5.0,100,0.00,,,0.00,Wunderground v.1.12,2013-04-27 02:10:00,
2013-04-26 19:20:00,50.8,50.8,30.11,West,261,4.0,4.0,100,0.00,,,0.00,Wunderground v.1.12,2013-04-27 02:20:00,
2013-04-26 19:30:00,50.5,50.5,30.11,WNW,288,3.0,5.0,100,0.00,,,0.00,Wunderground v.1.12,2013-04-27 02:30:00,
2013-04-26 19:40:00,50.2,50.2,30.11,WNW,303,5.0,6.0,100,0.00,,,0.00,Wunderground v.1.12,2013-04-27 02:40:00,
2013-04-26 19:50:00,50.1,50.1,30.11,WNW,289,3.0,3.0,100,0.00,,,0.00,Wunderground v.1.12,2013-04-27 02:50:00,
2013-04-26 20:00:00,50.1,50.1,30.11,South,188,1.0,3.0,100,0.00,,,0.00,Wunderground v.1.12,2013-04-27 03:00:00,
2013-04-26 20:10:00,50.1,50.1,30.11,WNW,290,2.0,3.0,100,0.00,,,0.00,Wunderground v.1.12,2013-04-27 03:10:00,
2013-04-26 20:20:00,50.1,50.1,30.11,WNW,295,3.0,5.0,100,0.00,,,0.00,Wunderground v.1.12,2013-04-27 03:20:00,
2013-04-26 20:30:00,49.8,49.8,30.11,WNW,288,4.0,4.0,100,0.00,,,0.00,Wunderground v.1.12,2013-04-27 03:30:00,
2013-04-26 20:40:00,49.6,49.6,30.11,WNW,294,3.0,3.0,100,0.00,,,0.00,Wunderground v.1.12,2013-04-27 03:40:00,
2013-04-26 20:50:00,49.5,49.5,30.11,West,277,1.0,1.0,100,0.00,,,0.00,Wunderground v.1.12,2013-04-27 03:50:00,
2013-04-26 21:00:00,49.6,49.6,30.11,WNW,288,1.0,1.0,100,0.00,,,0.00,Wunderground v.1.12,2013-04-27 04:00:00,
2013-04-26 21:03:00,49.6,49.6,30.11,WNW,292,1.0,4.0,100,0.00,,,-99.99,WeatherLink 5.8.2,2013-04-27 04:03:00,
2013-04-26 21:10:00,49.6,49.6,30.11,WNW,294,2.0,2.0,100,0.00,,,0.00,Wunderground v.1.12,2013-04-27 04:10:00,
2013-04-26 21:20:00,49.5,49.5,30.12,WNW,291,2.0,3.0,100,0.00,,,0.00,Wunderground v.1.12,2013-04-27 04:20:00,
2013-04-26 21:30:00,49.4,49.4,30.12,WNW,290,2.0,2.0,100,0.00,,,0.00,Wunderground v.1.12,2013-04-27 04:30:00,
2013-04-26 21:40:00,49.5,49.5,30.12,West,280,3.0,3.0,100,0.00,,,0.00,Wunderground v.1.12,2013-04-27 04:40:00,
2013-04-26 21:50:00,49.5,49.5,30.12,WNW,282,2.0,2.0,100,0.00,,,0.00,Wunderground v.1.12,2013-04-27 04:50:00,
2013-04-26 22:00:00,49.4,49.4,30.12,WNW,288,2.0,2.0,100,0.00,,,0.00,Wunderground v.1.12,2013-04-27 05:00:00,
2013-04-26 22:10:00,49.4,49.4,30.12,WNW,289,2.0,4.0,100,0.00,,,0.00,Wunderground v.1.12,2013-04-27 05:10:00,
2013-04-26 22:20:00,49.2,49.2,30.13,WNW,292,5.0,5.0,100,0.00,,,0.00,Wunderground v.1.12,2013-04-27 05:20:00,
2013-04-26 22:30:00,49.2,49.2,30.13,WNW,285,3.0,4.0,100,0.00,,,0.00,Wunderground v.1.12,2013-04-27 05:30:00,
2013-04-26 22:40:00,49.2,49.2,30.13,SSW,207,2.0,2.0,100,0.00,,,0.00,Wunderground v.1.12,2013-04-27 05:40:00,
2013-04-26 22:50:00,49.1,49.1,30.13,WNW,294,2.0,2.0,100,0.00,,,0.00,Wunderground v.1.12,2013-04-27 05:50:00,
2013-04-26 23:00:00,49.1,49.1,30.13,WNW,288,2.0,6.0,100,0.00,,,0.00,Wunderground v.1.12,2013-04-27 06:00:00,
2013-04-26 23:10:00,48.9,48.9,30.13,West,281,2.0,2.0,100,0.00,,,0.00,Wunderground v.1.12,2013-04-27 06:10:00,
2013-04-26 23:20:00,48.9,48.9,30.12,WSW,244,2.0,2.0,100,0.00,,,0.00,Wunderground v.1.12,2013-04-27 06:20:00,
2013-04-26 23:30:00,48.9,48.9,30.12,West,277,2.0,4.0,100,0.00,,,0.00,Wunderground v.1.12,2013-04-27 06:30:00,
2013-04-26 23:40:00,48.8,48.8,30.13,WNW,288,2.0,3.0,100,0.00,,,0.00,Wunderground v.1.12,2013-04-27 06:40:00,
2013-04-26 23:50:00,48.8,48.8,30.13,WNW,293,3.0,3.0,100,0.00,,,0.00,Wunderground v.1.12,2013-04-27 06:50:00,